Time,TemperatureF,DewpointF,PressureIn,WindDirection,WindDirectionDegrees,WindSpeedMPH,WindSpeedGustMPH,Humidity,HourlyPrecipIn,Conditions,Clouds,dailyrainin,SolarRadiationWatts/m^2,SoftwareType,DateUTC
2013-09-09 00:02:00,67.7,63.0,29.90,ESE,115,3.0,7.0,86,0.00,,,0.00,0,weatherlink.com 1.10,2013-09-09 04:02:00,
2013-09-09 00:17:00,67.5,63.0,29.90,SE,134,5.0,9.0,86,0.00,,,0.00,0,weatherlink.com 1.10,2013-09-09 04:17:00,
2013-09-09 00:32:00,67.5,63.0,29.90,SE,124,4.0,7.0,86,0.00,,,0.00,0,weatherlink.com 1.10,2013-09-09 04:32:00,
2013-09-09 00:47:00,67.5,63.0,29.91,SE,146,5.0,8.0,85,0.00,,,0.00,0,weatherlink.com 1.10,2013-09-09 04:47:00,
2013-09-09 01:02:00,67.5,63.0,29.90,ESE,109,4.0,10.0,84,0.00,,,0.00,0,weatherlink.com 1.10,2013-09-09 05:02:00,
2013-09-09 01:17:00,67.3,62.0,29.91,ESE,108,0.0,11.0,84,0.00,,,0.00,0,weatherlink.com 1.10,2013-09-09 05:17:00,
2013-09-09 01:32:00,67.0,62.0,29.91,SE,139,0.0,8.0,85,0.00,,,0.00,0,weatherlink.com 1.10,2013-09-09 05:32:00,
2013-09-09 01:47:00,66.6,62.0,29.91,SE,134,4.0,7.0,85,0.00,,,0.00,0,weatherlink.com 1.10,2013-09-09 05:47:00,
2013-09-09 02:02:00,66.5,62.0,29.90,SE,127,2.0,8.0,86,0.00,,,0.00,0,weatherlink.com 1.10,2013-09-09 06:02:00,
2013-09-09 02:17:00,66.4,62.0,29.90,SE,129,5.0,8.0,85,0.00,,,0.00,0,weatherlink.com 1.10,2013-09-09 06:17:00,
2013-09-09 02:32:00,66.4,62.0,29.91,ESE,106,4.0,7.0,85,0.00,,,0.00,0,weatherlink.com 1.10,2013-09-09 06:32:00,
2013-09-09 02:47:00,66.3,61.0,29.91,ESE,114,5.0,9.0,84,0.00,,,0.00,0,weatherlink.com 1.10,2013-09-09 06:47:00,
2013-09-09 03:02:00,66.2,61.0,29.90,SE,136,0.0,8.0,83,0.00,,,0.00,0,weatherlink.com 1.10,2013-09-09 07:02:00,
2013-09-09 03:17:00,66.1,61.0,29.89,SE,127,5.0,5.0,82,0.00,,,0.00,0,weatherlink.com 1.10,2013-09-09 07:17:00,
2013-09-09 03:32:00,66.0,60.0,29.90,ESE,111,1.0,5.0,82,0.00,,,0.00,0,weatherlink.com 1.10,2013-09-09 07:32:00,
2013-09-09 03:47:00,65.7,60.0,29.89,East,88,2.0,7.0,81,0.00,,,0.00,0,weatherlink.com 1.10,2013-09-09 07:47:00,
2013-09-09 04:02:00,65.4,59.0,29.89,East,91,0.0,6.0,80,0.00,,,0.00,0,weatherlink.com 1.10,2013-09-09 08:02:00,
2013-09-09 04:17:00,65.2,59.0,29.89,East,91,3.0,6.0,81,0.00,,,0.00,0,weatherlink.com 1.10,2013-09-09 08:17:00,
2013-09-09 04:32:00,65.2,59.0,29.89,East,93,2.0,7.0,81,0.00,,,0.00,0,weatherlink.com 1.10,2013-09-09 08:32:00,
2013-09-09 04:47:00,65.2,59.0,29.87,East,98,3.0,7.0,81,0.00,,,0.00,0,weatherlink.com 1.10,2013-09-09 08:47:00,
2013-09-09 05:02:00,65.2,60.0,29.87,ESE,105,1.0,7.0,82,0.00,,,0.00,0,weatherlink.com 1.10,2013-09-09 09:02:00,
2013-09-09 05:17:00,65.2,60.0,29.88,ESE,110,3.0,7.0,83,0.00,,,0.00,0,weatherlink.com 1.10,2013-09-09 09:17:00,
2013-09-09 05:32:00,65.1,60.0,29.87,ESE,110,0.0,5.0,84,0.00,,,0.00,0,weatherlink.com 1.10,2013-09-09 09:32:00,
2013-09-09 05:47:00,64.8,60.0,29.87,ESE,110,2.0,3.0,85,0.00,,,0.00,0,weatherlink.com 1.10,2013-09-09 09:47:00,
2013-09-09 06:02:00,64.7,61.0,29.87,ESE,110,0.0,3.0,86,0.00,,,0.00,0,weatherlink.com 1.10,2013-09-09 10:02:00,
2013-09-09 06:17:00,64.7,61.0,29.87,ESE,110,1.0,3.0,86,0.00,,,0.00,0,weatherlink.com 1.10,2013-09-09 10:17:00,
2013-09-09 06:32:00,64.7,61.0,29.86,ESE,110,1.0,3.0,87,0.00,,,0.00,0,weatherlink.com 1.10,2013-09-09 10:32:00,
2013-09-09 06:47:00,64.7,61.0,29.86,ESE,110,1.0,5.0,88,0.00,,,0.00,0,weatherlink.com 1.10,2013-09-09 10:47:00,
2013-09-09 07:02:00,64.7,61.0,29.87,ESE,110,1.0,7.0,88,0.00,,,0.00,0,weatherlink.com 1.10,2013-09-09 11:02:00,
2013-09-09 07:17:00,64.7,61.0,29.88,ESE,110,1.0,4.0,88,0.00,,,0.00,0,weatherlink.com 1.10,2013-09-09 11:17:00,
2013-09-09 07:32:00,64.7,62.0,29.87,ESE,112,5.0,5.0,89,0.00,,,0.00,0,weatherlink.com 1.10,2013-09-09 11:32:00,
2013-09-09 07:48:00,64.7,62.0,29.87,ESE,113,0.0,5.0,89,0.00,,,0.00,11,weatherlink.com 1.10,2013-09-09 11:48:00,
2013-09-09 08:03:00,64.8,62.0,29.88,ESE,113,2.0,4.0,90,0.00,,,0.00,21,weatherlink.com 1.10,2013-09-09 12:03:00,
2013-09-09 08:18:00,65.0,62.0,29.87,ESE,113,2.0,5.0,90,0.00,,,0.00,30,weatherlink.com 1.10,2013-09-09 12:18:00,
2013-09-09 08:33:00,65.3,62.0,29.88,ESE,113,1.0,3.0,90,0.00,,,0.00,53,weatherlink.com 1.10,2013-09-09 12:33:00,
2013-09-09 08:48:00,65.7,63.0,29.88,ESE,113,0.0,3.0,90,0.00,,,0.00,56,weatherlink.com 1.10,2013-09-09 12:48:00,
2013-09-09 09:03:00,66.0,63.0,29.89,ESE,113,1.0,3.0,90,0.00,,,0.00,65,weatherlink.com 1.10,2013-09-09 13:03:00,
2013-09-09 09:18:00,66.8,64.0,29.88,ESE,113,0.0,2.0,90,0.00,,,0.00,246,weatherlink.com 1.10,2013-09-09 13:18:00,
2013-09-09 09:33:00,68.5,65.0,29.88,SE,131,4.0,6.0,87,0.00,,,0.00,264,weatherlink.com 1.10,2013-09-09 13:33:00,
2013-09-09 09:48:00,69.2,65.0,29.89,SE,133,0.0,5.0,87,0.00,,,0.00,195,weatherlink.com 1.10,2013-09-09 13:48:00,
2013-09-09 10:03:00,70.2,66.0,29.89,SE,133,1.0,4.0,87,0.00,,,0.00,250,weatherlink.com 1.10,2013-09-09 14:03:00,
2013-09-09 10:18:00,71.0,67.0,29.88,SSE,149,3.0,8.0,86,0.00,,,0.00,158,weatherlink.com 1.10,2013-09-09 14:18:00,
2013-09-09 10:33:00,71.4,67.0,29.88,SE,134,2.0,5.0,87,0.00,,,0.00,237,weatherlink.com 1.10,2013-09-09 14:33:00,
2013-09-09 10:48:00,72.1,68.0,29.88,SE,135,3.0,6.0,86,0.00,,,0.00,142,weatherlink.com 1.10,2013-09-09 14:48:00,
2013-09-09 11:03:00,72.8,68.0,29.88,SE,135,2.0,3.0,86,0.00,,,0.00,178,weatherlink.com 1.10,2013-09-09 15:03:00,
2013-09-09 11:18:00,73.5,69.0,29.87,SE,139,2.0,6.0,85,0.00,,,0.00,278,weatherlink.com 1.10,2013-09-09 15:18:00,
2013-09-09 11:33:00,74.9,69.0,29.87,SSE,154,5.0,8.0,83,0.00,,,0.00,721,weatherlink.com 1.10,2013-09-09 15:33:00,
2013-09-09 11:48:00,76.9,70.0,29.87,SE,143,4.0,10.0,79,0.00,,,0.00,642,weatherlink.com 1.10,2013-09-09 15:48:00,
2013-09-09 12:03:00,77.8,71.0,29.86,South,190,10.0,10.0,79,0.00,,,0.00,645,weatherlink.com 1.10,2013-09-09 16:03:00,
2013-09-09 12:18:00,78.8,71.0,29.85,SE,128,4.0,10.0,78,0.00,,,0.00,670,weatherlink.com 1.10,2013-09-09 16:18:00,
2013-09-09 12:33:00,80.1,72.0,29.85,South,187,9.0,9.0,76,0.00,,,0.00,687,weatherlink.com 1.10,2013-09-09 16:33:00,
2013-09-09 12:48:00,81.5,72.0,29.85,SSW,198,1.0,9.0,73,0.00,,,0.00,696,weatherlink.com 1.10,2013-09-09 16:48:00,
2013-09-09 13:03:00,82.2,72.0,29.84,SSW,197,7.0,13.0,71,0.00,,,0.00,724,weatherlink.com 1.10,2013-09-09 17:03:00,
2013-09-09 13:19:00,83.2,72.0,29.84,SSE,150,5.0,11.0,69,0.00,,,0.00,729,weatherlink.com 1.10,2013-09-09 17:19:00,
2013-09-09 13:34:00,83.7,72.0,29.83,WSW,258,14.0,14.0,68,0.00,,,0.00,752,weatherlink.com 1.10,2013-09-09 17:34:00,
2013-09-09 13:49:00,84.3,73.0,29.83,SSW,210,5.0,9.0,68,0.00,,,0.00,740,weatherlink.com 1.10,2013-09-09 17:49:00,
2013-09-09 14:04:00,85.3,73.0,29.83,SSW,198,3.0,12.0,66,0.00,,,0.00,728,weatherlink.com 1.10,2013-09-09 18:04:00,
2013-09-09 14:19:00,85.5,73.0,29.82,SSW,192,6.0,11.0,66,0.00,,,0.00,733,weatherlink.com 1.10,2013-09-09 18:19:00,
2013-09-09 14:34:00,85.7,73.0,29.82,SW,235,10.0,14.0,65,0.00,,,0.00,724,weatherlink.com 1.10,2013-09-09 18:34:00,
2013-09-09 14:49:00,86.8,73.0,29.81,South,183,7.0,11.0,64,0.00,,,0.00,703,weatherlink.com 1.10,2013-09-09 18:49:00,
2013-09-09 15:04:00,87.5,73.0,29.80,SW,217,5.0,13.0,62,0.00,,,0.00,700,weatherlink.com 1.10,2013-09-09 19:04:00,
2013-09-09 15:19:00,88.0,73.0,29.80,SW,221,6.0,13.0,62,0.00,,,0.00,671,weatherlink.com 1.10,2013-09-09 19:19:00,
2013-09-09 15:34:00,88.3,73.0,29.80,South,173,3.0,14.0,60,0.00,,,0.00,643,weatherlink.com 1.10,2013-09-09 19:34:00,
2013-09-09 15:49:00,88.6,73.0,29.81,SSW,208,5.0,14.0,61,0.00,,,0.00,629,weatherlink.com 1.10,2013-09-09 19:49:00,
2013-09-09 16:04:00,89.1,73.0,29.79,SSW,210,9.0,14.0,60,0.00,,,0.00,598,weatherlink.com 1.10,2013-09-09 20:04:00,
2013-09-09 16:19:00,89.3,74.0,29.78,SSE,168,3.0,10.0,60,0.00,,,0.00,582,weatherlink.com 1.10,2013-09-09 20:19:00,
2013-09-09 16:34:00,89.7,73.0,29.76,South,170,1.0,11.0,59,0.00,,,0.00,536,weatherlink.com 1.10,2013-09-09 20:34:00,
2013-09-09 16:49:00,89.9,74.0,29.76,SSE,160,5.0,11.0,59,0.00,,,0.00,496,weatherlink.com 1.10,2013-09-09 20:49:00,
2013-09-09 17:04:00,90.2,74.0,29.76,SSE,156,3.0,11.0,59,0.00,,,0.00,462,weatherlink.com 1.10,2013-09-09 21:04:00,
2013-09-09 17:19:00,90.4,75.0,29.76,South,191,0.0,13.0,60,0.00,,,0.00,415,weatherlink.com 1.10,2013-09-09 21:19:00,
2013-09-09 17:34:00,90.9,75.0,29.77,SSW,197,1.0,9.0,59,0.00,,,0.00,374,weatherlink.com 1.10,2013-09-09 21:34:00,
2013-09-09 17:49:00,90.2,74.0,29.77,South,172,4.0,11.0,59,0.00,,,0.00,346,weatherlink.com 1.10,2013-09-09 21:49:00,
2013-09-09 18:04:00,90.3,74.0,29.77,SW,223,7.0,12.0,59,0.00,,,0.00,297,weatherlink.com 1.10,2013-09-09 22:04:00,
2013-09-09 18:19:00,90.4,75.0,29.77,SW,224,1.0,8.0,60,0.00,,,0.00,243,weatherlink.com 1.10,2013-09-09 22:19:00,
2013-09-09 18:34:00,90.0,75.0,29.77,South,177,3.0,8.0,61,0.00,,,0.00,197,weatherlink.com 1.10,2013-09-09 22:34:00,
2013-09-09 18:49:00,89.8,75.0,29.77,South,189,3.0,12.0,62,0.00,,,0.00,149,weatherlink.com 1.10,2013-09-09 22:49:00,
2013-09-09 19:04:00,89.3,75.0,29.77,SSW,200,6.0,7.0,62,0.00,,,0.00,105,weatherlink.com 1.10,2013-09-09 23:04:00,
2013-09-09 19:19:00,88.4,74.0,29.76,SSW,203,3.0,10.0,63,0.00,,,0.00,65,weatherlink.com 1.10,2013-09-09 23:19:00,
2013-09-09 19:34:00,87.7,75.0,29.77,SSW,206,2.0,7.0,65,0.00,,,0.00,37,weatherlink.com 1.10,2013-09-09 23:34:00,
2013-09-09 19:49:00,87.1,74.0,29.77,South,191,1.0,7.0,66,0.00,,,0.00,16,weatherlink.com 1.10,2013-09-09 23:49:00,
2013-09-09 20:04:00,86.5,74.0,29.78,SSW,196,2.0,5.0,67,0.00,,,0.00,0,weatherlink.com 1.10,2013-09-10 00:04:00,
2013-09-09 20:19:00,85.7,74.0,29.77,SSW,197,1.0,5.0,68,0.00,,,0.00,0,weatherlink.com 1.10,2013-09-10 00:19:00,
2013-09-09 20:34:00,85.2,74.0,29.78,South,190,3.0,9.0,70,0.00,,,0.00,0,weatherlink.com 1.10,2013-09-10 00:34:00,
2013-09-09 20:49:00,84.6,74.0,29.78,South,191,1.0,8.0,71,0.00,,,0.00,0,weatherlink.com 1.10,2013-09-10 00:49:00,
2013-09-09 21:04:00,84.1,74.0,29.78,SSW,198,4.0,7.0,72,0.00,,,0.00,0,weatherlink.com 1.10,2013-09-10 01:04:00,
2013-09-09 21:19:00,83.7,74.0,29.78,South,172,4.0,7.0,73,0.00,,,0.00,0,weatherlink.com 1.10,2013-09-10 01:19:00,
2013-09-09 21:34:00,83.3,74.0,29.79,SSW,210,6.0,7.0,74,0.00,,,0.00,0,weatherlink.com 1.10,2013-09-10 01:34:00,
2013-09-09 21:49:00,82.9,74.0,29.79,SSW,203,3.0,7.0,75,0.00,,,0.00,0,weatherlink.com 1.10,2013-09-10 01:49:00,
2013-09-09 22:04:00,82.5,74.0,29.79,SSW,210,3.0,7.0,75,0.00,,,0.00,0,weatherlink.com 1.10,2013-09-10 02:04:00,
2013-09-09 22:19:00,82.1,74.0,29.79,SSW,211,2.0,7.0,76,0.00,,,0.00,0,weatherlink.com 1.10,2013-09-10 02:19:00,
2013-09-09 22:35:00,81.8,74.0,29.79,SW,217,4.0,8.0,77,0.00,,,0.00,0,weatherlink.com 1.10,2013-09-10 02:35:00,
2013-09-09 22:50:00,81.4,74.0,29.80,SW,220,4.0,8.0,77,0.00,,,0.00,0,weatherlink.com 1.10,2013-09-10 02:50:00,
2013-09-09 23:05:00,81.0,74.0,29.81,SW,220,0.0,8.0,78,0.00,,,0.00,0,weatherlink.com 1.10,2013-09-10 03:05:00,
2013-09-09 23:20:00,80.7,74.0,29.81,SW,220,4.0,7.0,79,0.00,,,0.00,0,weatherlink.com 1.10,2013-09-10 03:20:00,
2013-09-09 23:35:00,80.5,73.0,29.81,SW,222,1.0,7.0,79,0.00,,,0.00,0,weatherlink.com 1.10,2013-09-10 03:35:00,
2013-09-09 23:50:00,80.4,74.0,29.81,SW,222,3.0,9.0,80,0.00,,,0.00,0,weatherlink.com 1.10,2013-09-10 03:50:00,